createdAt,value
2022-07-31T03:00:48.240Z,15.80
2022-07-31T03:03:15.520Z,15.80
2022-07-31T03:05:42.745Z,15.90
2022-07-31T03:08:09.909Z,15.90
2022-07-31T03:10:37.134Z,16.00
2022-07-31T03:13:07.226Z,16.00
2022-07-31T03:15:36.314Z,16.00
2022-07-31T03:18:11.137Z,16.00
2022-07-31T03:20:40.125Z,15.90
2022-07-31T03:23:07.529Z,15.90
2022-07-31T03:25:35.043Z,16.00
2022-07-31T03:28:02.457Z,16.10
2022-07-31T03:30:29.636Z,16.10
2022-07-31T03:32:57.410Z,16.00
2022-07-31T03:35:25.398Z,16.10
2022-07-31T03:37:52.909Z,16.20
2022-07-31T03:40:20.364Z,16.30
2022-07-31T03:42:49.060Z,16.30
2022-07-31T03:45:16.879Z,16.30
2022-07-31T03:47:44.143Z,16.30
2022-07-31T03:50:11.649Z,16.30
2022-07-31T03:52:39.878Z,16.30
2022-07-31T03:55:08.844Z,16.30
2022-07-31T03:57:38.025Z,16.20
2022-07-31T04:00:07.944Z,16.30
2022-07-31T04:02:45.171Z,16.30
2022-07-31T04:05:12.478Z,16.30
2022-07-31T04:07:39.686Z,16.30
2022-07-31T04:10:07.504Z,16.30
2022-07-31T04:12:34.796Z,16.30
2022-07-31T04:15:01.995Z,16.20
2022-07-31T04:17:30.826Z,16.10
2022-07-31T04:20:01.005Z,16.10
2022-07-31T04:22:29.629Z,16.30
2022-07-31T04:24:58.170Z,16.30
2022-07-31T04:27:25.416Z,16.50
2022-07-31T04:29:53.657Z,16.70
2022-07-31T04:32:21.687Z,16.80
2022-07-31T04:34:48.846Z,16.90
2022-07-31T04:37:16.893Z,16.90
2022-07-31T04:39:44.470Z,17.00
2022-07-31T04:42:12.468Z,16.90
2022-07-31T04:44:39.922Z,16.90
2022-07-31T04:47:07.623Z,16.90
2022-07-31T04:49:34.899Z,16.90
2022-07-31T04:52:02.480Z,17.00
2022-07-31T04:54:29.890Z,17.00
2022-07-31T04:56:57.143Z,17.10
2022-07-31T04:59:24.432Z,17.30
2022-07-31T05:02:11.721Z,17.20
2022-07-31T05:04:39.603Z,17.20
2022-07-31T05:07:06.838Z,17.30
2022-07-31T05:09:36.522Z,17.40
2022-07-31T05:12:04.499Z,17.50
2022-07-31T05:14:32.019Z,17.60
2022-07-31T05:16:59.333Z,17.80
2022-07-31T05:19:30.375Z,17.80
2022-07-31T05:22:02.361Z,17.80
2022-07-31T05:24:33.490Z,17.80
2022-07-31T05:27:04.776Z,17.90
2022-07-31T05:29:33.324Z,18.10
2022-07-31T05:32:01.509Z,18.20
2022-07-31T05:34:30.057Z,18.20
2022-07-31T05:37:01.794Z,18.30
2022-07-31T05:39:30.237Z,18.30
2022-07-31T05:41:57.625Z,18.30
2022-07-31T05:44:25.140Z,18.30
2022-07-31T05:49:19.887Z,18.50
2022-07-31T05:51:47.441Z,18.50
2022-07-31T05:54:14.838Z,18.60
2022-07-31T05:56:42.096Z,18.70
2022-07-31T05:59:09.797Z,18.90
2022-07-31T06:01:37.750Z,19.00
2022-07-31T06:04:05.571Z,19.10
2022-07-31T06:06:32.936Z,19.10
2022-07-31T06:09:04.401Z,19.00
2022-07-31T06:11:32.446Z,19.10
2022-07-31T06:13:59.900Z,19.10
2022-07-31T06:16:27.099Z,19.20
2022-07-31T06:18:54.373Z,19.30
2022-07-31T06:23:47.664Z,19.40
2022-07-31T06:26:15.227Z,19.40
2022-07-31T06:28:48.782Z,19.40
2022-07-31T06:31:21.026Z,19.40
2022-07-31T06:33:49.596Z,19.50
2022-07-31T06:36:18.099Z,19.50
2022-07-31T06:38:46.020Z,19.60
2022-07-31T06:41:33.611Z,19.60
2022-07-31T06:44:00.822Z,19.70
2022-07-31T06:46:28.495Z,19.70
2022-07-31T06:48:55.831Z,19.80
2022-07-31T06:51:31.752Z,19.80
2022-07-31T06:54:01.094Z,19.90
2022-07-31T06:56:29.444Z,20.10
2022-07-31T06:58:56.906Z,20.40
2022-07-31T07:01:24.278Z,20.60
2022-07-31T07:03:51.598Z,20.90
2022-07-31T07:06:19.212Z,21.20
2022-07-31T07:08:46.429Z,21.40
2022-07-31T07:11:14.136Z,21.50
2022-07-31T07:13:45.040Z,21.70
2022-07-31T07:16:14.716Z,21.90
2022-07-31T07:18:43.187Z,22.50
2022-07-31T07:21:11.050Z,23.70
2022-07-31T07:23:38.585Z,24.90
2022-07-31T07:26:06.206Z,25.50
2022-07-31T07:28:34.021Z,26.40
2022-07-31T07:31:01.909Z,26.80
2022-07-31T07:33:40.752Z,27.00
2022-07-31T07:36:23.483Z,27.20
2022-07-31T07:38:56.023Z,27.10
2022-07-31T07:41:25.298Z,26.80
2022-07-31T07:43:53.384Z,26.70
2022-07-31T07:46:25.012Z,26.50
2022-07-31T07:48:52.711Z,26.30
2022-07-31T07:51:20.699Z,25.90
2022-07-31T07:53:48.307Z,25.80
2022-07-31T07:56:16.001Z,25.80
2022-07-31T07:58:43.162Z,25.80
2022-07-31T08:01:13.472Z,26.10
2022-07-31T08:03:48.578Z,26.10
2022-07-31T08:06:17.753Z,26.40
2022-07-31T08:08:44.946Z,26.80
2022-07-31T08:11:17.099Z,27.30
2022-07-31T08:13:50.256Z,27.80
2022-07-31T08:16:21.668Z,28.60
2022-07-31T08:18:49.899Z,29.20
2022-07-31T08:21:17.173Z,30.10
2022-07-31T08:23:44.500Z,31.10
2022-07-31T08:26:13.815Z,31.70
2022-07-31T08:28:41.811Z,31.80
2022-07-31T08:31:20.954Z,31.00
2022-07-31T08:33:48.188Z,31.00
2022-07-31T08:36:15.411Z,30.70
2022-07-31T08:38:42.632Z,30.60
2022-07-31T08:41:12.009Z,30.60
2022-07-31T08:43:59.963Z,31.20
2022-07-31T08:46:27.388Z,32.00
2022-07-31T08:48:57.438Z,32.60
2022-07-31T08:51:25.416Z,33.30
2022-07-31T08:53:53.400Z,33.70
2022-07-31T08:56:21.469Z,33.80
2022-07-31T08:58:48.678Z,33.80
2022-07-31T09:01:16.098Z,34.30
2022-07-31T09:03:43.990Z,34.60
2022-07-31T09:06:11.246Z,34.20
2022-07-31T09:08:38.496Z,33.50
2022-07-31T09:11:10.888Z,32.50
2022-07-31T09:13:38.471Z,31.80
2022-07-31T09:16:08.097Z,31.30
2022-07-31T09:18:35.291Z,30.20
2022-07-31T09:21:04.907Z,30.00
2022-07-31T09:23:32.449Z,30.10
2022-07-31T09:26:07.591Z,30.10
2022-07-31T09:28:43.136Z,30.20
2022-07-31T09:31:11.333Z,30.00
2022-07-31T09:33:45.210Z,29.70
2022-07-31T09:36:13.551Z,29.30
2022-07-31T09:38:43.509Z,29.10
2022-07-31T09:41:53.432Z,29.10
2022-07-31T09:44:10.614Z,29.00
2022-07-31T09:46:46.239Z,28.90
2022-07-31T09:49:14.123Z,28.90
2022-07-31T09:51:46.944Z,28.80
2022-07-31T09:54:26.960Z,28.50
2022-07-31T09:56:54.415Z,28.50
2022-07-31T09:59:21.700Z,28.30
2022-07-31T10:01:49.696Z,28.30
2022-07-31T10:04:18.817Z,28.50
2022-07-31T10:06:50.959Z,28.40
2022-07-31T10:09:20.622Z,28.40
2022-07-31T10:11:51.478Z,28.50
2022-07-31T10:14:41.147Z,28.60
2022-07-31T10:17:10.251Z,28.90
2022-07-31T10:19:41.281Z,28.90
2022-07-31T10:22:09.913Z,28.90
2022-07-31T10:24:47.711Z,28.80
2022-07-31T10:27:17.387Z,28.50
2022-07-31T10:29:45.477Z,28.50
2022-07-31T10:32:12.962Z,28.50
2022-07-31T10:34:41.399Z,28.70
2022-07-31T10:37:23.065Z,28.70
2022-07-31T10:39:59.656Z,28.50
2022-07-31T10:42:49.669Z,28.70
2022-07-31T10:45:17.749Z,28.60
2022-07-31T10:47:59.764Z,28.40
2022-07-31T10:50:30.319Z,28.60
2022-07-31T10:53:12.036Z,28.40
2022-07-31T10:55:39.579Z,28.60
2022-07-31T10:58:19.752Z,28.90
2022-07-31T11:00:47.041Z,29.10
2022-07-31T11:03:22.353Z,29.20
2022-07-31T11:06:02.022Z,29.40
2022-07-31T11:08:41.861Z,29.30
2022-07-31T11:11:09.701Z,29.40
2022-07-31T11:13:55.435Z,29.50
2022-07-31T11:16:22.965Z,29.70
2022-07-31T11:19:04.379Z,29.70
2022-07-31T11:21:39.039Z,29.70
2022-07-31T11:24:20.952Z,29.60
2022-07-31T11:26:57.443Z,29.60
2022-07-31T11:29:59.046Z,29.70
2022-07-31T11:32:25.730Z,29.60
2022-07-31T11:34:56.052Z,29.20
2022-07-31T11:37:26.091Z,28.80
2022-07-31T11:40:09.631Z,28.30
2022-07-31T11:42:43.747Z,28.10
2022-07-31T11:45:12.405Z,28.20
2022-07-31T11:48:12.564Z,28.30
2022-07-31T11:50:30.860Z,28.30
2022-07-31T11:53:06.856Z,28.10
2022-07-31T11:55:44.695Z,27.80
2022-07-31T11:58:12.172Z,28.00
2022-07-31T12:00:39.481Z,27.90
2022-07-31T12:03:09.123Z,27.90
2022-07-31T12:05:45.184Z,28.00
2022-07-31T12:08:13.453Z,27.80
2022-07-31T12:10:42.006Z,27.20
2022-07-31T12:13:18.175Z,27.20
2022-07-31T12:15:55.605Z,27.00
2022-07-31T12:18:23.459Z,27.20
2022-07-31T12:20:54.249Z,27.40
2022-07-31T12:23:40.217Z,27.50
2022-07-31T12:26:12.351Z,27.40
2022-07-31T12:28:40.343Z,27.30
2022-07-31T12:31:07.604Z,27.00
2022-07-31T12:33:42.726Z,26.60
2022-07-31T12:36:15.032Z,26.80
2022-07-31T12:38:47.809Z,27.30
2022-07-31T12:41:16.213Z,27.60
2022-07-31T12:43:51.682Z,27.30
2022-07-31T12:46:38.538Z,27.50
2022-07-31T12:49:06.593Z,27.70
2022-07-31T12:51:45.792Z,27.90
2022-07-31T12:54:17.781Z,27.90
2022-07-31T12:56:46.467Z,27.70
2022-07-31T12:59:14.252Z,27.70
2022-07-31T13:01:41.913Z,27.80
2022-07-31T13:04:18.365Z,27.90
2022-07-31T13:06:51.653Z,27.90
2022-07-31T13:09:20.031Z,27.90
2022-07-31T13:11:48.418Z,27.80
2022-07-31T13:14:21.328Z,27.60
2022-07-31T13:16:50.678Z,27.60
2022-07-31T13:19:18.256Z,27.70
2022-07-31T13:21:49.303Z,27.80
2022-07-31T13:24:20.886Z,27.70
2022-07-31T13:26:49.542Z,27.70
2022-07-31T13:29:17.425Z,27.50
2022-07-31T13:31:45.057Z,27.40
2022-07-31T13:34:12.378Z,27.40
2022-07-31T13:36:40.126Z,27.50
2022-07-31T13:39:10.862Z,27.70
2022-07-31T13:41:39.043Z,27.80
2022-07-31T13:44:07.164Z,27.40
2022-07-31T13:46:34.562Z,27.40
2022-07-31T13:49:02.937Z,27.50
2022-07-31T13:51:30.312Z,27.30
2022-07-31T13:53:57.538Z,27.40
2022-07-31T13:56:39.070Z,27.80
2022-07-31T13:59:13.697Z,27.90
2022-07-31T14:02:04.134Z,27.60
2022-07-31T14:04:32.733Z,27.60
2022-07-31T14:07:06.764Z,27.50
2022-07-31T14:09:34.880Z,27.70
2022-07-31T14:12:04.316Z,27.80
2022-07-31T14:14:32.483Z,28.00
2022-07-31T14:16:59.826Z,28.20
2022-07-31T14:19:27.079Z,28.60
2022-07-31T14:21:56.878Z,29.00
2022-07-31T14:24:40.265Z,29.10
2022-07-31T14:27:07.906Z,29.20
2022-07-31T14:29:35.923Z,29.00
2022-07-31T14:34:35.563Z,29.00
2022-07-31T14:37:04.676Z,29.00
2022-07-31T14:39:32.201Z,28.90
2022-07-31T14:41:59.398Z,28.50
2022-07-31T14:44:29.004Z,28.40
2022-07-31T14:46:56.593Z,28.50
2022-07-31T14:49:23.911Z,28.50
2022-07-31T14:51:51.207Z,28.40
2022-07-31T14:54:18.414Z,28.00
2022-07-31T14:57:00.695Z,27.90
2022-07-31T14:59:30.077Z,27.80
2022-07-31T15:01:58.421Z,27.60
2022-07-31T15:04:25.879Z,27.50
2022-07-31T15:07:07.791Z,27.30
2022-07-31T15:09:40.440Z,27.50
2022-07-31T15:12:08.177Z,27.60
2022-07-31T15:14:35.538Z,27.90
2022-07-31T15:17:02.972Z,27.80
2022-07-31T15:19:30.487Z,27.70
2022-07-31T15:22:10.969Z,27.60
2022-07-31T15:24:48.250Z,27.60
2022-07-31T15:27:18.148Z,27.80
2022-07-31T15:30:06.140Z,28.00
2022-07-31T15:32:32.699Z,27.90
2022-07-31T15:34:59.964Z,28.00
2022-07-31T15:37:27.252Z,28.00
2022-07-31T15:40:03.367Z,28.00
2022-07-31T15:42:32.696Z,27.90
2022-07-31T15:45:00.006Z,27.60
2022-07-31T15:47:27.262Z,27.40
2022-07-31T15:49:54.558Z,27.30
2022-07-31T15:52:21.775Z,27.30
2022-07-31T15:54:51.973Z,27.20
2022-07-31T15:57:21.090Z,27.10
2022-07-31T15:59:49.275Z,27.10
2022-07-31T16:02:17.088Z,27.20
2022-07-31T16:04:52.352Z,27.20
2022-07-31T16:08:30.447Z,27.50
2022-07-31T16:10:16.761Z,27.70
2022-07-31T16:12:48.369Z,27.70
2022-07-31T16:15:18.366Z,27.50
2022-07-31T16:17:45.981Z,27.60
2022-07-31T16:20:20.815Z,27.50
2022-07-31T16:22:56.158Z,27.50
2022-07-31T16:25:24.418Z,27.30
2022-07-31T16:27:51.859Z,27.30
2022-07-31T16:30:19.134Z,27.20
2022-07-31T16:32:46.437Z,27.20
2022-07-31T16:35:13.802Z,27.20
2022-07-31T16:37:49.919Z,27.30
2022-07-31T16:40:28.751Z,27.30
2022-07-31T16:43:50.053Z,27.10
2022-07-31T16:45:54.309Z,27.10
2022-07-31T16:48:21.724Z,27.10
2022-07-31T16:50:53.216Z,27.10
2022-07-31T16:54:09.862Z,27.00
2022-07-31T16:56:15.021Z,26.80
2022-07-31T16:58:43.767Z,26.70
2022-07-31T17:01:53.941Z,26.70
2022-07-31T17:04:03.526Z,26.60
2022-07-31T17:06:37.254Z,26.50
2022-07-31T17:09:15.225Z,26.30
2022-07-31T17:11:47.164Z,26.00
2022-07-31T17:14:15.275Z,26.00
2022-07-31T17:16:47.120Z,26.00
2022-07-31T17:19:36.278Z,26.00
2022-07-31T17:22:07.436Z,25.90
2022-07-31T17:24:37.258Z,25.80
2022-07-31T17:27:08.574Z,25.80
2022-07-31T17:29:37.723Z,25.70
2022-07-31T17:32:05.369Z,25.60
2022-07-31T17:34:32.610Z,25.60
2022-07-31T17:36:59.811Z,25.70
2022-07-31T17:39:30.895Z,25.90
2022-07-31T17:41:59.323Z,26.00
2022-07-31T17:44:26.620Z,25.90
2022-07-31T17:46:54.752Z,25.90
2022-07-31T17:49:22.094Z,25.80
2022-07-31T17:51:58.935Z,25.80
2022-07-31T17:54:28.649Z,25.80
2022-07-31T17:56:56.103Z,25.90
2022-07-31T17:59:23.501Z,25.80
2022-07-31T18:01:53.141Z,25.70
2022-07-31T18:04:21.346Z,25.70
2022-07-31T18:06:54.444Z,25.60
2022-07-31T18:09:23.562Z,25.50
2022-07-31T18:11:52.379Z,25.60
2022-07-31T18:14:20.533Z,25.50
2022-07-31T18:16:51.712Z,25.40
2022-07-31T18:19:21.343Z,25.40
2022-07-31T18:21:49.201Z,25.30
2022-07-31T18:24:16.479Z,25.20
2022-07-31T18:26:43.713Z,25.10
2022-07-31T18:29:11.134Z,25.00
2022-07-31T18:31:38.663Z,24.80
2022-07-31T18:34:07.050Z,24.70
2022-07-31T18:36:34.898Z,24.60
2022-07-31T18:39:03.940Z,24.50
2022-07-31T18:41:33.978Z,24.40
2022-07-31T18:44:01.964Z,24.40
2022-07-31T18:46:29.273Z,24.30
2022-07-31T18:48:57.023Z,24.20
2022-07-31T18:51:25.176Z,24.10
2022-07-31T18:53:54.345Z,24.00
2022-07-31T18:56:23.680Z,23.90
2022-07-31T18:58:52.294Z,23.90
2022-07-31T19:01:20.869Z,23.80
2022-07-31T19:03:48.590Z,23.60
2022-07-31T19:06:16.164Z,23.60
2022-07-31T19:08:43.872Z,23.50
2022-07-31T19:11:12.202Z,23.40
2022-07-31T19:13:39.484Z,23.40
2022-07-31T19:16:06.895Z,23.30
2022-07-31T19:18:34.445Z,23.30
2022-07-31T19:21:22.618Z,23.30
2022-07-31T19:23:50.028Z,23.20
2022-07-31T19:26:17.689Z,23.10
2022-07-31T19:28:45.089Z,22.90
2022-07-31T19:31:13.278Z,22.80
2022-07-31T19:33:41.238Z,22.70
2022-07-31T19:36:10.751Z,22.70
2022-07-31T19:38:39.683Z,22.60
2022-07-31T19:41:07.010Z,22.60
2022-07-31T19:43:34.318Z,22.70
2022-07-31T19:46:11.346Z,22.60
2022-07-31T19:48:44.852Z,22.60
2022-07-31T19:51:13.742Z,22.50
2022-07-31T19:53:41.906Z,22.50
2022-07-31T19:56:10.978Z,22.50
2022-07-31T19:58:41.199Z,22.50
2022-07-31T20:01:09.437Z,22.50
2022-07-31T20:03:36.970Z,22.50
2022-07-31T20:06:04.728Z,22.50
2022-07-31T20:08:33.522Z,22.50
2022-07-31T20:11:03.900Z,22.40
2022-07-31T20:13:36.012Z,22.30
2022-07-31T20:16:03.640Z,22.30
2022-07-31T20:18:31.012Z,22.20
2022-07-31T20:21:09.855Z,22.30
2022-07-31T20:23:39.084Z,22.30
2022-07-31T20:26:10.127Z,22.30
2022-07-31T20:28:40.146Z,22.30
2022-07-31T20:31:15.739Z,22.30
2022-07-31T20:33:48.886Z,22.40
2022-07-31T20:36:27.026Z,22.40
2022-07-31T20:38:55.418Z,22.40
2022-07-31T20:41:22.646Z,21.90
2022-07-31T20:43:50.259Z,21.90
2022-07-31T20:46:18.200Z,21.80
2022-07-31T20:48:45.380Z,21.70
2022-07-31T20:51:20.169Z,21.60
2022-07-31T20:53:48.366Z,21.60
2022-07-31T20:56:16.240Z,21.60
2022-07-31T20:58:46.209Z,21.60
